createdAt,value
2023-01-23T00:02:15.472Z,9.36
2023-01-23T00:04:44.993Z,9.35
2023-01-23T00:07:13.205Z,9.28
2023-01-23T00:09:50.047Z,9.26
2023-01-23T00:12:18.637Z,9.27
2023-01-23T00:14:46.720Z,9.23
2023-01-23T00:17:16.109Z,9.24
2023-01-23T00:19:49.193Z,9.23
2023-01-23T00:22:18.327Z,9.19
2023-01-23T00:24:49.037Z,9.20
2023-01-23T00:27:17.102Z,9.21
2023-01-23T00:29:47.569Z,9.20
2023-01-23T00:32:17.046Z,9.11
2023-01-23T00:34:46.548Z,9.07
2023-01-23T00:37:20.341Z,8.94
2023-01-23T00:39:50.945Z,9.06
2023-01-23T00:42:22.135Z,8.92
2023-01-23T00:44:50.229Z,8.91
2023-01-23T00:47:21.830Z,8.85
2023-01-23T00:49:50.005Z,8.83
2023-01-23T00:52:18.016Z,8.80
2023-01-23T00:54:46.164Z,8.69
2023-01-23T00:57:14.283Z,8.58
2023-01-23T00:59:43.925Z,8.57
2023-01-23T01:02:12.199Z,8.53
2023-01-23T01:04:41.815Z,8.71
2023-01-23T01:07:17.011Z,8.75
2023-01-23T01:09:45.156Z,8.77
2023-01-23T01:12:14.534Z,8.68
2023-01-23T01:14:42.665Z,8.82
2023-01-23T01:17:10.644Z,8.83
2023-01-23T01:19:38.686Z,8.83
2023-01-23T01:22:15.807Z,8.83
2023-01-23T01:24:43.826Z,8.94
2023-01-23T01:27:12.053Z,8.92
2023-01-23T01:29:43.790Z,8.96
2023-01-23T01:32:16.531Z,8.80
2023-01-23T01:34:44.634Z,8.94
2023-01-23T01:37:14.301Z,8.97
2023-01-23T01:39:42.503Z,8.97
2023-01-23T01:42:10.474Z,8.98
2023-01-23T01:44:53.411Z,8.99
2023-01-23T01:47:21.515Z,8.96
2023-01-23T01:49:49.631Z,8.92
2023-01-23T01:52:19.454Z,8.88
2023-01-23T01:54:48.896Z,8.82
2023-01-23T01:57:20.788Z,8.71
2023-01-23T01:59:50.456Z,8.68
2023-01-23T02:02:22.160Z,8.64
2023-01-23T02:04:51.000Z,8.56
2023-01-23T02:07:24.009Z,8.60
2023-01-23T02:09:58.251Z,8.56
2023-01-23T02:12:28.241Z,8.46
2023-01-23T02:14:56.882Z,8.48
2023-01-23T02:17:24.855Z,8.50
2023-01-23T02:19:55.941Z,8.47
2023-01-23T02:22:29.929Z,8.34
2023-01-23T02:25:01.343Z,8.39
2023-01-23T02:27:30.853Z,8.37
2023-01-23T02:30:00.216Z,8.32
2023-01-23T02:32:30.890Z,8.32
2023-01-23T02:34:59.455Z,8.36
2023-01-23T02:37:30.930Z,8.33
2023-01-23T02:40:03.476Z,8.42
2023-01-23T02:42:35.441Z,8.34
2023-01-23T02:45:05.849Z,8.45
2023-01-23T02:47:33.916Z,8.39
2023-01-23T02:50:03.288Z,8.35
2023-01-23T02:52:32.748Z,8.37
2023-01-23T02:55:00.758Z,8.22
2023-01-23T02:57:42.662Z,8.15
2023-01-23T03:00:20.132Z,8.17
2023-01-23T03:02:49.044Z,8.18
2023-01-23T03:05:17.238Z,8.17
2023-01-23T03:07:45.329Z,8.23
2023-01-23T03:10:13.999Z,8.18
2023-01-23T03:12:45.331Z,8.18
2023-01-23T03:15:16.692Z,8.16
2023-01-23T03:17:45.214Z,8.19
2023-01-23T03:20:14.900Z,8.16
2023-01-23T03:22:43.422Z,8.02
2023-01-23T03:25:12.142Z,8.08
2023-01-23T03:27:40.584Z,8.16
2023-01-23T03:30:16.114Z,8.16
2023-01-23T03:32:45.990Z,8.16
2023-01-23T03:35:16.553Z,8.12
2023-01-23T03:37:49.096Z,8.09
2023-01-23T03:40:35.932Z,8.04
2023-01-23T03:43:05.277Z,8.11
2023-01-23T03:45:35.100Z,8.13
2023-01-23T03:48:07.377Z,8.20
2023-01-23T03:55:00.116Z,8.22
2023-01-23T03:57:29.070Z,8.26
2023-01-23T04:00:23.426Z,8.22
2023-01-23T04:02:59.393Z,8.19
2023-01-23T04:05:31.238Z,8.20
2023-01-23T04:12:34.301Z,8.15
2023-01-23T04:15:04.134Z,8.14
2023-01-23T04:17:32.135Z,8.07
2023-01-23T04:20:00.168Z,7.92
2023-01-23T04:22:29.835Z,7.75
2023-01-23T04:24:57.888Z,7.81
2023-01-23T04:27:25.905Z,7.84
2023-01-23T04:29:56.278Z,7.86
2023-01-23T04:32:24.377Z,7.89
2023-01-23T04:35:58.320Z,7.88
2023-01-23T04:38:30.792Z,7.70
2023-01-23T04:41:06.254Z,7.66
2023-01-23T04:43:44.222Z,7.44
2023-01-23T04:46:18.357Z,7.53
2023-01-23T04:48:48.654Z,7.52
2023-01-23T04:51:20.457Z,7.56
2023-01-23T04:53:49.892Z,7.58
2023-01-23T04:56:18.401Z,7.59
2023-01-23T04:58:47.021Z,7.61
2023-01-23T05:01:23.412Z,7.61
2023-01-23T05:03:56.228Z,7.66
2023-01-23T05:06:24.434Z,7.61
2023-01-23T05:08:59.937Z,7.66
2023-01-23T05:11:35.786Z,7.50
2023-01-23T05:14:03.985Z,7.36
2023-01-23T05:16:33.244Z,7.34
2023-01-23T05:19:16.796Z,7.35
2023-01-23T05:21:46.415Z,7.37
2023-01-23T05:24:19.986Z,7.40
2023-01-23T05:26:49.338Z,7.43
2023-01-23T05:29:19.627Z,7.42
2023-01-23T05:31:56.416Z,7.31
2023-01-23T05:34:47.085Z,7.44
2023-01-23T05:37:20.465Z,7.37
2023-01-23T05:39:53.824Z,7.40
2023-01-23T05:42:29.958Z,7.37
2023-01-23T05:45:29.860Z,7.33
2023-01-23T05:47:58.543Z,7.27
2023-01-23T05:50:28.250Z,7.27
2023-01-23T05:52:56.252Z,7.28
2023-01-23T05:55:25.948Z,7.30
2023-01-23T05:57:55.500Z,7.25
2023-01-23T06:00:38.666Z,7.29
2023-01-23T06:03:32.212Z,7.31
2023-01-23T06:06:21.650Z,7.30
2023-01-23T06:08:49.739Z,7.32
2023-01-23T06:11:21.537Z,7.21
2023-01-23T06:13:52.218Z,7.27
2023-01-23T06:16:22.912Z,7.23
2023-01-23T06:18:51.231Z,7.23
2023-01-23T06:21:22.538Z,7.20
2023-01-23T06:23:50.515Z,7.16
2023-01-23T06:26:20.303Z,7.10
2023-01-23T06:28:49.067Z,7.11
2023-01-23T06:31:17.651Z,7.09
2023-01-23T06:33:54.376Z,7.06
2023-01-23T06:36:27.360Z,7.06
2023-01-23T06:38:56.024Z,7.04
2023-01-23T06:41:33.466Z,7.04
2023-01-23T06:44:04.817Z,7.05
2023-01-23T06:46:32.787Z,7.11
2023-01-23T06:49:00.837Z,7.16
2023-01-23T06:51:30.731Z,7.16
2023-01-23T06:53:59.094Z,7.17
2023-01-23T06:56:27.422Z,7.14
2023-01-23T06:59:06.749Z,7.25
2023-01-23T07:01:36.763Z,7.29
2023-01-23T07:04:05.098Z,7.34
2023-01-23T07:06:35.417Z,7.36
2023-01-23T07:09:04.673Z,7.42
2023-01-23T07:11:33.353Z,7.41
2023-01-23T07:14:02.765Z,7.35
2023-01-23T07:16:32.937Z,7.41
2023-01-23T07:19:05.354Z,7.43
2023-01-23T07:21:37.397Z,7.37
2023-01-23T07:24:06.055Z,7.39
2023-01-23T07:26:39.148Z,7.32
2023-01-23T07:29:11.053Z,7.17
2023-01-23T07:31:42.497Z,7.14
2023-01-23T07:34:10.569Z,7.22
2023-01-23T07:36:38.626Z,7.23
2023-01-23T07:39:06.820Z,7.25
2023-01-23T07:41:34.974Z,7.23
2023-01-23T07:44:16.718Z,7.20
2023-01-23T07:46:46.398Z,7.23
2023-01-23T07:49:15.389Z,7.16
2023-01-23T07:51:43.637Z,7.27
2023-01-23T07:54:11.566Z,7.30
2023-01-23T07:56:45.065Z,7.29
2023-01-23T07:59:14.669Z,7.30
2023-01-23T08:01:43.337Z,7.18
2023-01-23T08:04:11.867Z,7.17
2023-01-23T08:06:41.507Z,7.27
2023-01-23T08:09:09.534Z,7.29
2023-01-23T08:11:37.597Z,7.23
2023-01-23T08:14:05.718Z,7.35
2023-01-23T08:16:35.179Z,7.33
2023-01-23T08:19:07.757Z,7.32
2023-01-23T08:21:35.932Z,7.27
2023-01-23T08:24:05.111Z,7.26
2023-01-23T08:26:37.790Z,7.32
2023-01-23T08:29:05.863Z,7.35
2023-01-23T08:31:36.164Z,7.34
2023-01-23T08:34:06.725Z,7.25
2023-01-23T08:36:34.926Z,7.38
2023-01-23T08:39:02.933Z,7.36
2023-01-23T08:41:30.988Z,7.39
2023-01-23T08:44:08.079Z,7.39
2023-01-23T08:46:37.663Z,7.41
2023-01-23T08:49:06.837Z,7.41
2023-01-23T08:51:35.066Z,7.48
2023-01-23T08:54:03.081Z,7.51
2023-01-23T08:56:33.446Z,7.57
2023-01-23T08:59:01.574Z,7.61
2023-01-23T09:01:29.591Z,7.68
2023-01-23T09:03:59.415Z,7.74
2023-01-23T09:06:30.528Z,7.88
2023-01-23T09:08:58.754Z,7.90
2023-01-23T09:11:26.828Z,7.99
2023-01-23T09:13:56.283Z,8.03
2023-01-23T09:16:24.929Z,8.09
2023-01-23T09:18:53.142Z,8.14
2023-01-23T09:21:22.526Z,8.20
2023-01-23T09:23:50.803Z,8.25
2023-01-23T09:26:20.037Z,8.44
2023-01-23T09:28:48.360Z,8.57
2023-01-23T09:31:16.976Z,8.71
2023-01-23T09:33:45.038Z,8.86
2023-01-23T09:36:13.689Z,8.93
2023-01-23T09:38:45.802Z,8.95
2023-01-23T09:41:17.498Z,9.25
2023-01-23T09:43:49.256Z,9.39
2023-01-23T09:46:22.070Z,9.47
2023-01-23T09:48:53.898Z,9.60
2023-01-23T09:51:27.137Z,9.62
2023-01-23T09:54:01.156Z,9.71
2023-01-23T09:56:32.491Z,9.76
2023-01-23T09:59:03.820Z,9.93
2023-01-23T10:01:47.131Z,10.01
2023-01-23T10:04:15.204Z,9.98
2023-01-23T10:06:56.833Z,10.11
2023-01-23T10:09:32.752Z,10.18
2023-01-23T10:12:08.392Z,10.02
2023-01-23T10:15:01.127Z,10.25
2023-01-23T10:17:33.692Z,10.19
2023-01-23T10:20:19.638Z,10.26
2023-01-23T10:22:51.211Z,10.22
2023-01-23T10:25:23.129Z,10.24
2023-01-23T10:27:52.079Z,10.16
2023-01-23T10:30:29.998Z,10.23
2023-01-23T10:33:00.068Z,10.24
2023-01-23T10:35:33.404Z,10.00
2023-01-23T10:38:03.119Z,10.24
2023-01-23T10:40:53.510Z,10.24
2023-01-23T10:43:22.514Z,10.14
2023-01-23T10:45:53.031Z,10.18
2023-01-23T10:48:39.506Z,10.24
2023-01-23T10:51:29.741Z,10.27
2023-01-23T10:54:16.951Z,10.28
2023-01-23T10:57:01.719Z,10.32
2023-01-23T10:59:32.678Z,10.39
2023-01-23T11:02:20.533Z,10.50
2023-01-23T11:04:49.593Z,10.53
2023-01-23T11:07:19.584Z,10.61
2023-01-23T11:09:52.944Z,10.77
2023-01-23T11:12:23.833Z,10.72
2023-01-23T11:15:12.929Z,10.93
2023-01-23T11:17:45.401Z,10.93
2023-01-23T11:20:44.363Z,10.90
2023-01-23T11:23:19.298Z,11.22
2023-01-23T11:25:49.383Z,11.15
2023-01-23T11:28:27.411Z,11.33
2023-01-23T11:31:13.148Z,11.41
2023-01-23T11:33:48.392Z,11.51
2023-01-23T11:36:31.060Z,11.55
2023-01-23T11:39:20.280Z,11.62
2023-01-23T11:41:49.127Z,11.62
2023-01-23T11:44:22.998Z,11.72
2023-01-23T11:47:25.236Z,11.74
2023-01-23T11:50:43.699Z,11.78
2023-01-23T11:53:33.502Z,11.82
2023-01-23T11:56:29.592Z,11.88
2023-01-23T11:59:47.948Z,11.88
2023-01-23T12:02:45.759Z,11.90
2023-01-23T12:05:43.817Z,11.94
2023-01-23T12:08:19.357Z,11.96
2023-01-23T12:10:55.309Z,11.99
2023-01-23T12:13:34.838Z,12.06
2023-01-23T12:16:21.938Z,12.12
2023-01-23T12:18:56.395Z,12.31
2023-01-23T12:21:30.601Z,12.36
2023-01-23T12:24:10.157Z,12.42
2023-01-23T12:26:58.390Z,12.55
2023-01-23T12:29:55.530Z,12.55
2023-01-23T12:32:36.197Z,12.59
2023-01-23T12:35:13.221Z,12.46
2023-01-23T12:37:49.969Z,12.59
2023-01-23T12:40:23.020Z,12.59
2023-01-23T12:42:55.437Z,12.59
2023-01-23T12:45:24.489Z,12.59
2023-01-23T12:48:04.198Z,12.60
2023-01-23T12:50:39.180Z,12.60
2023-01-23T12:53:11.520Z,12.60
2023-01-23T12:55:42.853Z,12.61
2023-01-23T12:58:21.528Z,12.62
2023-01-23T13:01:08.419Z,12.53
2023-01-23T13:03:59.762Z,12.63
2023-01-23T13:06:40.023Z,12.60
2023-01-23T13:09:18.186Z,12.57
2023-01-23T13:11:56.942Z,12.57
2023-01-23T13:14:32.820Z,12.40
2023-01-23T13:17:05.010Z,12.53
2023-01-23T13:19:52.178Z,12.52
2023-01-23T13:22:33.000Z,12.49
2023-01-23T13:25:12.987Z,12.46
2023-01-23T13:27:52.109Z,12.42
2023-01-23T13:30:42.312Z,12.45
2023-01-23T13:34:10.206Z,12.46
2023-01-23T13:36:44.653Z,12.42
2023-01-23T13:39:30.921Z,12.46
2023-01-23T13:42:45.693Z,12.47
2023-01-23T13:45:31.683Z,12.46
2023-01-23T14:21:40.085Z,12.56
2023-01-23T14:24:22.153Z,12.59
2023-01-23T14:26:50.790Z,12.50
2023-01-23T14:29:23.596Z,12.51
2023-01-23T14:31:52.243Z,12.62
2023-01-23T14:34:23.448Z,12.62
2023-01-23T14:37:01.149Z,12.63
2023-01-23T14:39:30.349Z,12.61
2023-01-23T14:42:02.329Z,12.60
2023-01-23T14:44:32.551Z,12.59
2023-01-23T14:47:08.564Z,12.59
2023-01-23T14:49:38.650Z,12.49
2023-01-23T14:52:08.588Z,12.48
2023-01-23T14:54:37.892Z,12.56
2023-01-23T14:57:08.649Z,12.57
2023-01-23T14:59:39.274Z,12.44
2023-01-23T15:02:27.361Z,12.46
2023-01-23T15:05:13.173Z,12.36
2023-01-23T15:07:49.563Z,12.38
2023-01-23T15:10:21.911Z,12.51
2023-01-23T15:12:54.329Z,12.35
2023-01-23T15:15:32.283Z,12.49
2023-01-23T15:18:13.461Z,12.53
2023-01-23T15:21:03.659Z,12.47
2023-01-23T15:23:33.582Z,12.58
2023-01-23T15:26:13.273Z,12.60
2023-01-23T15:28:43.101Z,12.49
2023-01-23T15:31:28.935Z,12.64
2023-01-23T15:33:58.500Z,12.66
2023-01-23T15:36:29.123Z,12.67
2023-01-23T15:38:58.741Z,12.63
2023-01-23T15:41:42.807Z,12.54
2023-01-23T15:44:16.524Z,12.50
2023-01-23T15:46:44.767Z,12.60
2023-01-23T15:49:24.955Z,12.64
2023-01-23T15:51:57.676Z,12.42
2023-01-23T15:54:30.824Z,12.34
2023-01-23T15:57:07.412Z,12.44
2023-01-23T15:59:39.151Z,12.41
2023-01-23T16:02:12.847Z,12.34
2023-01-23T16:04:46.538Z,12.13
2023-01-23T16:07:22.597Z,12.22
2023-01-23T16:09:52.175Z,12.08
2023-01-23T16:12:20.858Z,12.12
2023-01-23T16:14:49.069Z,12.10
2023-01-23T16:17:18.297Z,12.03
2023-01-23T16:19:46.657Z,11.96
2023-01-23T16:22:15.749Z,11.84
2023-01-23T16:24:48.213Z,11.84
2023-01-23T16:27:27.388Z,11.65
2023-01-23T16:29:55.847Z,11.68
2023-01-23T16:32:25.415Z,11.54
2023-01-23T16:34:54.130Z,11.43
2023-01-23T16:37:22.362Z,11.23
2023-01-23T16:39:52.268Z,11.24
2023-01-23T16:42:22.949Z,11.05
2023-01-23T16:44:51.372Z,11.07
2023-01-23T16:47:21.548Z,10.92
2023-01-23T16:49:54.063Z,10.93
2023-01-23T16:52:24.869Z,10.76
2023-01-23T16:54:57.052Z,10.73
2023-01-23T16:57:25.630Z,10.56
2023-01-23T16:59:56.578Z,10.51
2023-01-23T17:02:30.393Z,10.46
2023-01-23T17:04:59.939Z,10.35
2023-01-23T17:07:28.153Z,10.04
2023-01-23T17:10:00.499Z,10.19
2023-01-23T17:12:33.277Z,10.00
2023-01-23T17:15:01.411Z,10.00
2023-01-23T17:17:32.429Z,10.03
2023-01-23T17:20:02.300Z,9.84
2023-01-23T17:22:40.413Z,9.86
2023-01-23T17:25:21.573Z,9.80
2023-01-23T17:28:03.587Z,9.62
2023-01-23T17:30:40.222Z,9.66
2023-01-23T17:33:14.828Z,9.61
2023-01-23T17:35:45.279Z,9.52
2023-01-23T17:38:17.278Z,9.53
2023-01-23T17:40:55.889Z,9.51
2023-01-23T17:43:24.482Z,9.28
2023-01-23T17:45:53.735Z,9.45
2023-01-23T17:48:28.782Z,9.40
2023-01-23T17:51:05.742Z,9.36
2023-01-23T17:53:33.845Z,9.37
2023-01-23T17:56:03.267Z,9.34
2023-01-23T17:58:45.497Z,9.26
2023-01-23T18:01:22.093Z,9.27
2023-01-23T18:03:50.931Z,9.24
2023-01-23T18:06:19.870Z,9.17
2023-01-23T18:08:49.797Z,9.16
2023-01-23T18:11:21.727Z,9.14
2023-01-23T18:14:11.227Z,9.13
2023-01-23T18:16:42.881Z,9.06
2023-01-23T18:19:22.212Z,9.02
2023-01-23T18:21:51.282Z,8.97
2023-01-23T18:24:27.186Z,8.92
2023-01-23T18:27:28.065Z,8.90
2023-01-23T18:30:19.357Z,8.74
2023-01-23T18:33:11.698Z,8.88
2023-01-23T18:35:53.407Z,8.85
2023-01-23T18:38:24.500Z,8.78
2023-01-23T18:41:05.475Z,8.64
2023-01-23T18:43:43.646Z,8.60
2023-01-23T18:46:13.442Z,8.60
2023-01-23T18:48:42.488Z,8.53
2023-01-23T18:51:17.856Z,8.57
2023-01-23T18:53:52.408Z,8.54
2023-01-23T18:56:31.712Z,8.49
2023-01-23T18:59:12.247Z,8.36
2023-01-23T19:01:45.222Z,8.44
2023-01-23T19:04:15.226Z,8.42
2023-01-23T19:06:45.309Z,8.35
2023-01-23T19:09:20.236Z,8.23
2023-01-23T19:12:02.920Z,8.33
2023-01-23T19:14:50.632Z,8.28
2023-01-23T19:17:33.496Z,8.22
2023-01-23T19:20:05.672Z,8.20
2023-01-23T19:22:43.571Z,8.18
2023-01-23T19:25:16.910Z,8.14
2023-01-23T19:27:46.186Z,8.08
2023-01-23T19:30:19.359Z,8.00
2023-01-23T19:32:48.196Z,7.92
2023-01-23T19:35:16.627Z,7.89
2023-01-23T19:37:45.327Z,7.81
2023-01-23T19:40:13.901Z,7.81
2023-01-23T19:42:51.110Z,7.76
2023-01-23T19:45:32.248Z,7.74
2023-01-23T19:48:00.463Z,7.69
2023-01-23T19:50:29.730Z,7.69
2023-01-23T19:53:00.204Z,7.66
2023-01-23T19:55:30.256Z,7.62
2023-01-23T19:58:00.892Z,7.58
2023-01-23T20:00:35.398Z,7.55
2023-01-23T20:03:05.586Z,7.54
2023-01-23T20:05:36.048Z,7.53
2023-01-23T20:08:04.588Z,7.50
2023-01-23T20:10:32.584Z,7.49
2023-01-23T20:13:03.034Z,7.47
2023-01-23T20:15:33.829Z,7.32
2023-01-23T20:18:05.570Z,7.41
2023-01-23T20:20:33.769Z,7.19
2023-01-23T20:23:03.475Z,7.31
2023-01-23T20:25:35.764Z,7.20
2023-01-23T20:28:03.844Z,7.18
2023-01-23T20:30:33.261Z,7.07
2023-01-23T20:33:05.413Z,7.07
2023-01-23T20:35:33.533Z,7.00
2023-01-23T20:38:01.647Z,7.00
2023-01-23T20:40:32.918Z,7.07
2023-01-23T20:43:01.073Z,7.07
2023-01-23T20:45:29.054Z,7.08
2023-01-23T20:47:59.006Z,7.05
2023-01-23T20:50:28.222Z,7.07
2023-01-23T20:53:13.820Z,6.96
2023-01-23T20:55:41.766Z,6.96
2023-01-23T20:58:27.397Z,6.94
2023-01-23T21:00:56.738Z,6.90
2023-01-23T21:03:28.756Z,6.88
2023-01-23T21:05:57.874Z,6.85
2023-01-23T21:08:26.096Z,6.83
2023-01-23T21:10:54.167Z,6.82
2023-01-23T21:13:22.763Z,6.79
2023-01-23T21:16:00.551Z,6.79
2023-01-23T21:18:32.225Z,6.76
2023-01-23T21:23:50.201Z,6.69
2023-01-23T21:26:22.272Z,6.69
2023-01-23T21:28:50.863Z,6.65
2023-01-23T21:31:21.184Z,6.67
2023-01-23T21:33:53.229Z,6.61
2023-01-23T21:36:22.673Z,6.64
2023-01-23T21:38:52.470Z,6.62
2023-01-23T21:41:22.009Z,6.61
2023-01-23T21:43:50.121Z,6.68
2023-01-23T21:46:20.569Z,6.68
2023-01-23T21:48:50.254Z,6.61
2023-01-23T21:51:20.312Z,6.63
2023-01-23T21:53:48.913Z,6.44
2023-01-23T21:56:18.877Z,6.52
2023-01-23T21:58:47.131Z,6.49
2023-01-23T22:01:35.765Z,6.35
2023-01-23T22:04:08.782Z,6.38
2023-01-23T22:06:37.781Z,6.42
2023-01-23T22:09:07.970Z,6.38
2023-01-23T22:11:39.780Z,6.36
2023-01-23T22:14:08.215Z,6.27
2023-01-23T22:16:51.465Z,6.40
2023-01-23T22:19:25.343Z,6.39
2023-01-23T22:21:54.068Z,6.38
2023-01-23T22:24:26.700Z,6.41
2023-01-23T22:26:54.832Z,6.43
2023-01-23T22:29:24.101Z,6.35
2023-01-23T22:31:52.485Z,6.36
2023-01-23T22:34:22.049Z,6.32
2023-01-23T22:36:50.115Z,6.28
2023-01-23T22:39:19.759Z,6.23
2023-01-23T22:41:47.993Z,6.25
2023-01-23T22:44:18.520Z,6.29
2023-01-23T22:46:46.664Z,6.27
2023-01-23T22:49:14.588Z,6.22
2023-01-23T22:51:44.102Z,6.14
2023-01-23T22:54:12.067Z,6.18
2023-01-23T22:56:45.757Z,6.19
2023-01-23T22:59:13.866Z,6.01
2023-01-23T23:01:44.247Z,6.16
2023-01-23T23:04:12.471Z,5.99
2023-01-23T23:06:42.849Z,6.10
2023-01-23T23:09:15.540Z,6.15
2023-01-23T23:11:44.748Z,6.14
2023-01-23T23:14:13.039Z,5.99
2023-01-23T23:16:43.446Z,5.99
2023-01-23T23:19:12.288Z,6.00
2023-01-23T23:21:40.239Z,6.09
2023-01-23T23:24:13.647Z,6.09
2023-01-23T23:26:44.422Z,6.14
2023-01-23T23:29:12.432Z,6.14
2023-01-23T23:31:40.610Z,6.06
2023-01-23T23:34:11.290Z,6.07
2023-01-23T23:36:39.341Z,6.08
2023-01-23T23:39:07.315Z,6.11
2023-01-23T23:41:36.770Z,6.09
2023-01-23T23:44:07.813Z,5.96
2023-01-23T23:46:35.932Z,6.06
2023-01-23T23:49:03.909Z,5.98
2023-01-23T23:51:31.928Z,5.99
2023-01-23T23:54:00.061Z,5.95
2023-01-23T23:56:28.980Z,5.94
2023-01-23T23:58:58.547Z,5.92
